createdAt,value
2018-07-01T00:00:26.897Z,99.90
2018-07-01T00:02:55.961Z,99.90
2018-07-01T00:05:24.972Z,99.90
2018-07-01T00:07:54.026Z,99.90
2018-07-01T00:10:23.050Z,99.90
2018-07-01T00:12:52.114Z,99.90
2018-07-01T00:15:21.127Z,99.90
2018-07-01T00:17:50.153Z,99.90
2018-07-01T00:20:19.288Z,99.90
2018-07-01T00:22:48.348Z,99.90
2018-07-01T00:25:17.443Z,99.90
2018-07-01T00:27:46.629Z,99.90
2018-07-01T00:30:15.733Z,99.90
2018-07-01T00:32:44.951Z,99.90
2018-07-01T00:35:13.991Z,99.90
2018-07-01T00:37:44.005Z,99.90
2018-07-01T00:40:13.062Z,99.90
2018-07-01T00:42:42.086Z,99.90
2018-07-01T00:45:11.095Z,99.90
2018-07-01T00:47:40.116Z,99.90
2018-07-01T00:50:09.158Z,99.90
2018-07-01T00:52:38.204Z,99.90
2018-07-01T00:55:07.232Z,99.90
2018-07-01T00:57:36.287Z,99.90
2018-07-01T01:00:05.889Z,99.90
2018-07-01T01:02:34.943Z,99.90
2018-07-01T01:05:04.141Z,99.90
2018-07-01T01:07:33.147Z,99.90
2018-07-01T01:10:02.197Z,99.90
2018-07-01T01:12:31.228Z,99.90
2018-07-01T01:15:00.256Z,99.90
2018-07-01T01:17:29.288Z,99.90
2018-07-01T01:19:58.355Z,99.90
2018-07-01T01:22:27.355Z,99.90
2018-07-01T01:27:24.987Z,99.90
2018-07-01T01:29:54.017Z,99.90
2018-07-01T01:32:23.043Z,99.90
2018-07-01T01:34:52.182Z,99.90
2018-07-01T01:37:21.319Z,99.90
2018-07-01T01:39:50.608Z,99.90
2018-07-01T01:42:27.614Z,99.90
2018-07-01T01:45:01.588Z,99.90
2018-07-01T01:47:37.579Z,99.90
2018-07-01T01:50:17.319Z,99.90
2018-07-01T01:52:53.787Z,99.90
2018-07-01T01:55:36.756Z,99.90
2018-07-01T01:58:11.307Z,99.90
2018-07-01T02:00:45.596Z,99.90
2018-07-01T02:03:22.709Z,99.90
2018-07-01T02:06:58.019Z,99.90
2018-07-01T02:09:29.302Z,99.90
2018-07-01T02:11:59.803Z,99.90
2018-07-01T02:14:39.336Z,99.90
2018-07-01T02:17:11.912Z,99.90
2018-07-01T02:19:41.097Z,99.90
2018-07-01T02:22:12.664Z,99.90
2018-07-01T02:24:44.738Z,99.90
2018-07-01T02:27:13.840Z,99.90
2018-07-01T02:29:43.019Z,99.90
2018-07-01T02:34:40.647Z,99.90
2018-07-01T02:37:09.699Z,99.90
2018-07-01T02:39:38.757Z,99.90
2018-07-01T02:42:07.841Z,99.90
2018-07-01T02:44:36.838Z,99.90
2018-07-01T02:47:06.303Z,99.90
2018-07-01T02:49:35.336Z,99.90
2018-07-01T02:52:04.864Z,99.90
2018-07-01T02:54:33.874Z,99.90
2018-07-01T02:57:02.935Z,99.90
2018-07-01T02:59:32.004Z,99.90
2018-07-01T03:02:01.076Z,99.90
2018-07-01T03:04:30.169Z,99.90
2018-07-01T03:06:59.209Z,99.90
2018-07-01T03:09:28.229Z,99.90
2018-07-01T03:11:57.260Z,99.90
2018-07-01T03:14:26.283Z,99.90
2018-07-01T03:16:55.326Z,99.90
2018-07-01T03:19:24.360Z,99.90
2018-07-01T03:21:53.406Z,99.90
2018-07-01T03:24:22.428Z,99.90
2018-07-01T03:26:51.450Z,99.90
2018-07-01T03:29:20.480Z,99.90
2018-07-01T03:31:49.560Z,99.90
2018-07-01T03:34:18.586Z,99.90
2018-07-01T03:36:47.608Z,99.90
2018-07-01T03:39:16.639Z,99.90
2018-07-01T03:41:45.687Z,99.90
2018-07-01T03:44:14.680Z,99.90
2018-07-01T03:46:43.720Z,99.90
2018-07-01T03:49:12.744Z,99.90
2018-07-01T03:51:41.823Z,99.90
2018-07-01T03:54:10.854Z,99.90
2018-07-01T03:56:39.870Z,99.90
2018-07-01T03:59:08.888Z,99.90
2018-07-01T04:01:37.939Z,99.90
2018-07-01T04:04:06.971Z,99.90
2018-07-01T04:06:36.025Z,99.90
2018-07-01T04:09:09.047Z,99.90
2018-07-01T04:11:38.096Z,99.90
2018-07-01T04:14:07.123Z,99.90
2018-07-01T04:16:36.287Z,99.90
2018-07-01T04:19:05.456Z,99.90
2018-07-01T04:21:34.520Z,99.90
2018-07-01T04:24:03.671Z,99.90
2018-07-01T04:26:32.716Z,99.90
2018-07-01T04:29:01.804Z,99.90
2018-07-01T04:31:30.908Z,99.90
2018-07-01T04:33:59.988Z,99.90
2018-07-01T04:36:29.053Z,99.90
2018-07-01T04:38:58.049Z,99.90
2018-07-01T04:41:27.070Z,99.90
2018-07-01T04:43:56.160Z,99.90
2018-07-01T04:46:25.176Z,99.90
2018-07-01T04:48:54.163Z,99.90
2018-07-01T04:51:23.200Z,99.90
2018-07-01T04:53:52.205Z,99.90
2018-07-01T04:56:21.276Z,99.90
2018-07-01T04:58:50.328Z,99.90
2018-07-01T05:01:19.537Z,99.90
2018-07-01T05:03:48.590Z,99.90
2018-07-01T05:06:17.607Z,99.90
2018-07-01T05:08:46.635Z,99.90
2018-07-01T05:11:15.677Z,99.90
2018-07-01T05:13:44.743Z,99.90
2018-07-01T05:18:42.324Z,99.90
2018-07-01T05:21:11.368Z,99.90
2018-07-01T05:23:40.418Z,99.90
2018-07-01T05:26:09.422Z,99.90
2018-07-01T05:28:38.462Z,99.90
2018-07-01T05:31:07.708Z,99.90
2018-07-01T05:33:36.738Z,99.90
2018-07-01T05:36:05.843Z,99.90
2018-07-01T05:38:34.856Z,99.90
2018-07-01T05:41:03.895Z,99.90
2018-07-01T05:43:32.925Z,99.90
2018-07-01T05:46:01.939Z,99.90
2018-07-01T05:50:59.595Z,99.90
2018-07-01T05:53:28.647Z,99.90
2018-07-01T05:55:58.615Z,99.90
2018-07-01T05:58:27.773Z,99.90
2018-07-01T06:00:56.782Z,99.90
2018-07-01T06:03:25.841Z,99.90
2018-07-01T06:05:54.957Z,99.90
2018-07-01T06:08:24.119Z,99.90
2018-07-01T06:10:53.162Z,99.90
2018-07-01T06:13:22.242Z,99.90
2018-07-01T06:15:51.276Z,99.90
2018-07-01T06:18:20.345Z,99.90
2018-07-01T06:20:49.452Z,99.90
2018-07-01T06:23:18.493Z,99.90
2018-07-01T06:25:47.523Z,99.90
2018-07-01T06:28:16.507Z,99.90
2018-07-01T06:30:45.532Z,99.90
2018-07-01T06:33:14.555Z,99.90
2018-07-01T06:35:43.595Z,99.90
2018-07-01T06:38:12.644Z,99.90
2018-07-01T06:40:41.711Z,99.90
2018-07-01T06:43:10.971Z,99.90
2018-07-01T06:45:40.068Z,99.90
2018-07-01T06:48:09.330Z,99.90
2018-07-01T06:50:38.397Z,99.90
2018-07-01T06:53:07.826Z,99.90
2018-07-01T06:55:36.839Z,99.90
2018-07-01T06:58:06.403Z,99.90
2018-07-01T07:00:35.393Z,99.90
2018-07-01T07:03:04.510Z,99.90
2018-07-01T07:05:33.519Z,99.90
2018-07-01T07:08:02.576Z,99.90
2018-07-01T07:10:31.695Z,99.90
2018-07-01T07:13:00.718Z,99.50
2018-07-01T07:15:29.794Z,99.70
2018-07-01T07:17:58.779Z,99.70
2018-07-01T07:20:27.831Z,98.10
2018-07-01T07:22:56.902Z,97.70
2018-07-01T07:25:26.000Z,98.80
2018-07-01T07:27:55.035Z,98.80
2018-07-01T07:30:24.100Z,98.10
2018-07-01T07:32:53.144Z,97.50
2018-07-01T07:35:22.172Z,96.50
2018-07-01T07:37:51.227Z,96.00
2018-07-01T07:40:20.219Z,95.40
2018-07-01T07:42:49.275Z,95.40
2018-07-01T07:45:18.292Z,95.60
2018-07-01T07:47:47.355Z,94.70
2018-07-01T07:50:16.326Z,95.00
2018-07-01T07:52:45.351Z,95.10
2018-07-01T07:55:14.357Z,94.60
2018-07-01T07:57:43.643Z,95.20
2018-07-01T08:00:12.758Z,95.00
2018-07-01T08:02:41.791Z,94.80
2018-07-01T08:05:11.317Z,95.20
2018-07-01T08:07:40.377Z,94.50
2018-07-01T08:10:09.438Z,92.50
2018-07-01T08:12:38.489Z,93.00
2018-07-01T08:15:07.632Z,94.00
2018-07-01T08:17:36.672Z,92.30
2018-07-01T08:20:05.785Z,91.60
2018-07-01T08:22:34.802Z,92.20
2018-07-01T08:25:03.879Z,93.80
2018-07-01T08:27:32.939Z,93.70
2018-07-01T08:30:01.969Z,91.90
2018-07-01T08:32:31.059Z,90.60
2018-07-01T08:35:00.093Z,91.80
2018-07-01T08:37:29.132Z,91.90
2018-07-01T08:39:58.164Z,93.30
2018-07-01T08:42:31.214Z,92.30
2018-07-01T08:45:01.436Z,92.30
2018-07-01T08:47:30.966Z,91.80
2018-07-01T08:50:00.069Z,90.40
2018-07-01T08:52:29.186Z,92.20
2018-07-01T08:54:58.331Z,91.30
2018-07-01T08:57:27.387Z,90.50
2018-07-01T08:59:56.448Z,91.50
2018-07-01T09:02:25.475Z,91.50
2018-07-01T09:04:54.538Z,92.80
2018-07-01T09:07:23.585Z,91.70
2018-07-01T09:09:52.596Z,93.00
2018-07-01T09:12:21.639Z,91.20
2018-07-01T09:14:50.682Z,91.80
2018-07-01T09:17:19.772Z,90.30
2018-07-01T09:19:48.768Z,91.00
2018-07-01T09:22:17.806Z,90.20
2018-07-01T09:24:46.843Z,89.30
2018-07-01T09:27:16.015Z,88.80
2018-07-01T09:29:50.223Z,86.60
2018-07-01T09:32:19.394Z,88.90
2018-07-01T09:34:48.414Z,86.90
2018-07-01T09:37:17.490Z,88.40
2018-07-01T09:39:46.535Z,88.60
2018-07-01T09:42:15.526Z,85.70
2018-07-01T09:44:45.178Z,84.80
2018-07-01T09:47:14.218Z,87.80
2018-07-01T09:49:43.687Z,86.10
2018-07-01T09:52:12.743Z,83.00
2018-07-01T09:54:41.774Z,87.00
2018-07-01T09:57:10.855Z,85.10
2018-07-01T09:59:39.899Z,84.30
2018-07-01T10:02:08.996Z,85.20
2018-07-01T10:04:38.037Z,87.60
2018-07-01T10:07:07.338Z,85.30
2018-07-01T10:09:36.454Z,84.90
2018-07-01T10:12:05.670Z,85.20
2018-07-01T10:14:34.864Z,85.80
2018-07-01T10:17:03.875Z,83.60
2018-07-01T10:19:32.908Z,81.10
2018-07-01T10:24:30.846Z,85.80
2018-07-01T10:26:59.890Z,83.30
2018-07-01T10:29:28.917Z,81.40
2018-07-01T10:31:57.991Z,83.20
2018-07-01T10:34:26.983Z,83.90
2018-07-01T10:36:56.012Z,82.30
2018-07-01T10:39:25.053Z,83.00
2018-07-01T10:41:54.094Z,83.40
2018-07-01T10:44:23.085Z,83.30
2018-07-01T10:46:52.114Z,83.30
2018-07-01T10:49:21.133Z,82.80
2018-07-01T10:51:50.277Z,84.70
2018-07-01T10:54:19.311Z,85.20
2018-07-01T10:56:48.365Z,83.00
2018-07-01T10:59:17.375Z,83.60
2018-07-01T11:04:14.984Z,83.30
2018-07-01T11:06:44.038Z,84.80
2018-07-01T11:09:13.739Z,83.80
2018-07-01T11:11:42.853Z,84.80
2018-07-01T11:14:11.857Z,84.10
2018-07-01T11:16:40.879Z,84.20
2018-07-01T11:19:09.906Z,83.50
2018-07-01T11:21:38.928Z,84.40
2018-07-01T11:26:36.814Z,83.90
2018-07-01T11:29:05.837Z,81.80
2018-07-01T11:31:34.941Z,83.20
2018-07-01T11:34:04.083Z,83.10
2018-07-01T11:36:33.148Z,84.80
2018-07-01T11:39:02.244Z,82.10
2018-07-01T11:41:31.213Z,84.30
2018-07-01T11:44:00.252Z,84.70
2018-07-01T11:46:29.275Z,83.40
2018-07-01T11:48:58.312Z,82.00
2018-07-01T11:51:27.295Z,79.70
2018-07-01T11:53:56.327Z,78.70
2018-07-01T11:56:25.402Z,81.00
2018-07-01T11:58:54.415Z,82.20
2018-07-01T12:01:23.455Z,78.70
2018-07-01T12:03:52.462Z,79.60
2018-07-01T12:06:21.510Z,78.90
2018-07-01T12:08:50.501Z,80.90
2018-07-01T12:11:19.541Z,79.40
2018-07-01T12:13:48.603Z,81.10
2018-07-01T12:16:17.612Z,79.90
2018-07-01T12:18:47.091Z,80.00
2018-07-01T12:21:16.117Z,80.20
2018-07-01T12:23:45.176Z,80.90
2018-07-01T12:26:14.884Z,78.70
2018-07-01T12:28:43.935Z,77.40
2018-07-01T12:31:13.062Z,78.50
2018-07-01T12:33:42.132Z,80.90
2018-07-01T12:36:11.430Z,77.10
2018-07-01T12:38:40.501Z,79.30
2018-07-01T12:41:09.570Z,79.50
2018-07-01T12:43:38.591Z,81.10
2018-07-01T12:46:08.157Z,78.90
2018-07-01T12:48:37.235Z,81.10
2018-07-01T12:51:06.432Z,78.30
2018-07-01T12:53:35.647Z,77.60
2018-07-01T12:56:04.936Z,79.20
2018-07-01T12:58:34.035Z,76.50
2018-07-01T13:01:03.086Z,78.40
2018-07-01T13:03:32.135Z,76.80
2018-07-01T13:06:01.240Z,76.70
2018-07-01T13:08:30.316Z,76.50
2018-07-01T13:10:59.414Z,76.70
2018-07-01T13:13:28.439Z,76.50
2018-07-01T13:15:57.497Z,77.40
2018-07-01T13:18:26.523Z,77.60
2018-07-01T13:20:55.681Z,78.20
2018-07-01T13:23:24.683Z,76.50
2018-07-01T13:25:53.719Z,76.90
2018-07-01T13:28:22.774Z,75.80
2018-07-01T13:30:51.929Z,77.90
2018-07-01T13:33:20.990Z,77.90
2018-07-01T13:35:50.083Z,78.80
2018-07-01T13:38:19.128Z,76.80
2018-07-01T13:40:48.149Z,75.10
2018-07-01T13:43:17.220Z,75.10
2018-07-01T13:45:46.258Z,75.20
2018-07-01T13:50:43.862Z,75.90
2018-07-01T13:53:12.901Z,75.00
2018-07-01T13:55:41.940Z,73.60
2018-07-01T13:58:11.006Z,74.30
2018-07-01T14:00:40.092Z,75.40
2018-07-01T14:03:09.080Z,73.90
2018-07-01T14:05:38.149Z,74.80
2018-07-01T14:08:07.243Z,78.10
2018-07-01T14:10:36.276Z,75.90
2018-07-01T14:13:05.595Z,76.30
2018-07-01T14:15:34.639Z,73.30
2018-07-01T14:18:03.807Z,74.70
2018-07-01T14:20:32.889Z,72.60
2018-07-01T14:23:01.955Z,74.50
2018-07-01T14:25:30.954Z,73.00
2018-07-01T14:27:59.975Z,72.70
2018-07-01T14:30:29.052Z,71.90
2018-07-01T14:32:58.086Z,70.90
2018-07-01T14:35:27.213Z,69.10
2018-07-01T14:37:56.275Z,72.10
2018-07-01T14:40:25.395Z,70.60
2018-07-01T14:42:54.428Z,69.30
2018-07-01T14:45:23.455Z,70.30
2018-07-01T14:47:52.450Z,68.50
2018-07-01T14:50:21.704Z,70.60
2018-07-01T14:52:50.735Z,70.40
2018-07-01T14:55:19.828Z,68.70
2018-07-01T14:57:48.882Z,70.10
2018-07-01T15:00:17.892Z,71.40
2018-07-01T15:02:46.948Z,69.30
2018-07-01T15:05:16.015Z,71.00
2018-07-01T15:07:45.039Z,71.20
2018-07-01T15:10:14.119Z,70.90
2018-07-01T15:12:43.159Z,71.40
2018-07-01T15:15:12.185Z,73.00
2018-07-01T15:20:09.913Z,69.90
2018-07-01T15:22:38.920Z,70.30
2018-07-01T15:25:07.970Z,71.20
2018-07-01T15:27:37.030Z,69.90
2018-07-01T15:30:06.243Z,68.20
2018-07-01T15:32:35.291Z,69.60
2018-07-01T15:35:04.343Z,68.40
2018-07-01T15:37:33.472Z,68.60
2018-07-01T15:40:02.447Z,70.40
2018-07-01T15:42:31.537Z,70.80
2018-07-01T15:45:00.670Z,70.80
2018-07-01T15:47:29.777Z,70.10
2018-07-01T15:49:58.823Z,71.20
2018-07-01T15:52:27.853Z,70.20
2018-07-01T15:54:56.965Z,68.70
2018-07-01T15:57:25.999Z,69.40
2018-07-01T15:59:55.055Z,68.80
2018-07-01T16:02:24.072Z,69.70
2018-07-01T16:04:53.156Z,70.00
2018-07-01T16:07:22.230Z,69.70
2018-07-01T16:09:51.230Z,71.10
2018-07-01T16:12:20.382Z,70.60
2018-07-01T16:14:49.490Z,70.00
2018-07-01T16:17:18.530Z,69.70
2018-07-01T16:19:47.532Z,69.30
2018-07-01T16:22:16.573Z,70.50
2018-07-01T16:24:50.972Z,69.80
2018-07-01T16:27:25.251Z,70.20
2018-07-01T16:29:54.278Z,70.50
2018-07-01T16:32:23.275Z,69.70
2018-07-01T16:34:52.320Z,68.60
2018-07-01T16:37:21.451Z,69.00
2018-07-01T16:39:50.507Z,69.20
2018-07-01T16:42:19.563Z,71.00
2018-07-01T16:44:48.734Z,69.80
2018-07-01T16:47:17.804Z,70.90
2018-07-01T16:49:46.847Z,72.20
2018-07-01T16:52:15.919Z,70.60
2018-07-01T16:54:44.913Z,70.00
2018-07-01T16:57:13.947Z,70.60
2018-07-01T16:59:43.000Z,70.90
2018-07-01T17:02:12.095Z,72.30
2018-07-01T17:04:41.202Z,70.50
2018-07-01T17:07:10.274Z,70.60
2018-07-01T17:09:39.286Z,71.50
2018-07-01T17:12:08.341Z,72.20
2018-07-01T17:14:37.398Z,72.10
2018-07-01T17:17:06.411Z,69.70
2018-07-01T17:19:38.594Z,68.00
2018-07-01T17:22:07.592Z,69.50
2018-07-01T17:24:36.639Z,69.50
2018-07-01T17:27:05.847Z,68.90
2018-07-01T17:29:34.920Z,68.90
2018-07-01T17:32:09.078Z,70.00
2018-07-01T17:34:38.161Z,69.50
2018-07-01T17:37:07.339Z,69.00
2018-07-01T17:39:36.319Z,69.20
2018-07-01T17:42:05.387Z,70.50
2018-07-01T17:44:34.415Z,70.00
2018-07-01T17:47:03.513Z,70.50
2018-07-01T17:49:32.527Z,70.90
2018-07-01T17:52:01.560Z,69.10
2018-07-01T17:54:30.564Z,70.00
2018-07-01T17:57:00.046Z,70.40
2018-07-01T17:59:29.108Z,69.90
2018-07-01T18:01:58.254Z,70.60
2018-07-01T18:04:27.412Z,71.00
2018-07-01T18:06:56.484Z,71.00
2018-07-01T18:09:25.582Z,71.30
2018-07-01T18:11:54.595Z,71.90
2018-07-01T18:14:23.665Z,72.60
2018-07-01T18:16:52.710Z,73.00
2018-07-01T18:19:22.266Z,73.40
2018-07-01T18:22:14.003Z,73.60
2018-07-01T18:24:48.928Z,73.10
2018-07-01T18:26:49.464Z,73.30
2018-07-01T18:29:20.104Z,73.40
2018-07-01T18:31:47.564Z,74.20
2018-07-01T18:34:16.588Z,74.00
2018-07-01T18:36:45.564Z,75.00
2018-07-01T18:39:14.742Z,74.80
2018-07-01T18:41:43.730Z,75.30
2018-07-01T18:44:12.770Z,75.30
2018-07-01T18:46:41.886Z,75.60
2018-07-01T18:49:10.877Z,76.70
2018-07-01T18:51:39.918Z,76.90
2018-07-01T18:54:08.894Z,77.50
2018-07-01T18:56:38.457Z,78.30
2018-07-01T18:59:07.538Z,78.70
2018-07-01T19:01:36.519Z,79.70
2018-07-01T19:04:05.599Z,80.10
2018-07-01T19:06:34.585Z,80.90
2018-07-01T19:09:03.801Z,81.40
2018-07-01T19:11:32.856Z,81.90
2018-07-01T19:14:01.974Z,82.30
2018-07-01T19:16:31.083Z,82.70
2018-07-01T19:19:00.138Z,83.60
2018-07-01T19:21:29.235Z,84.40
2018-07-01T19:23:58.234Z,84.70
2018-07-01T19:26:27.279Z,85.40
2018-07-01T19:28:56.301Z,85.80
2018-07-01T19:31:25.362Z,86.60
2018-07-01T19:33:54.392Z,87.10
2018-07-01T19:36:23.481Z,87.30
2018-07-01T19:38:52.527Z,88.30
2018-07-01T19:43:50.160Z,89.60
2018-07-01T19:46:19.250Z,90.20
2018-07-01T19:48:48.358Z,90.90
2018-07-01T19:51:17.344Z,91.00
2018-07-01T19:53:46.707Z,91.10
2018-07-01T19:56:15.708Z,91.30
2018-07-01T19:58:44.745Z,91.50
2018-07-01T20:01:13.805Z,91.70
2018-07-01T20:03:42.863Z,91.90
2018-07-01T20:06:11.933Z,92.20
2018-07-01T20:08:40.940Z,92.50
2018-07-01T20:11:09.960Z,93.00
2018-07-01T20:13:38.966Z,93.40
2018-07-01T20:16:08.039Z,93.70
2018-07-01T20:18:37.063Z,94.40
2018-07-01T20:21:06.159Z,94.90
2018-07-01T20:23:35.195Z,95.00
2018-07-01T20:26:04.248Z,95.30
2018-07-01T20:28:33.327Z,95.60
2018-07-01T20:31:02.333Z,96.70
2018-07-01T20:33:31.387Z,97.60
2018-07-01T20:36:00.508Z,98.60
2018-07-01T20:38:29.514Z,99.10
2018-07-01T20:40:58.555Z,99.10
2018-07-01T20:43:27.573Z,99.90
2018-07-01T20:45:56.594Z,99.90
2018-07-01T20:48:25.671Z,99.90
2018-07-01T20:50:54.808Z,99.90
2018-07-01T20:53:23.887Z,99.90
2018-07-01T20:55:52.954Z,99.90
2018-07-01T20:58:22.116Z,99.90
2018-07-01T21:00:51.243Z,99.90
2018-07-01T21:03:20.423Z,99.90
2018-07-01T21:05:49.542Z,99.90
2018-07-01T21:08:18.595Z,99.90
2018-07-01T21:10:47.595Z,99.90
2018-07-01T21:13:16.636Z,99.90
2018-07-01T21:15:45.664Z,99.90
2018-07-01T21:18:14.701Z,99.90
2018-07-01T21:20:43.750Z,99.90
2018-07-01T21:23:12.774Z,99.90
2018-07-01T21:25:41.875Z,99.90
2018-07-01T21:28:10.894Z,99.90
2018-07-01T21:30:39.925Z,99.90
2018-07-01T21:33:09.001Z,99.90
2018-07-01T21:35:38.072Z,99.90
2018-07-01T21:38:07.147Z,99.90
2018-07-01T21:40:36.212Z,99.90
2018-07-01T21:43:05.393Z,99.90
2018-07-01T21:45:34.531Z,99.90
2018-07-01T21:48:03.899Z,99.90
2018-07-01T21:50:33.125Z,99.90
2018-07-01T21:53:02.294Z,99.90
2018-07-01T21:55:31.611Z,99.90
2018-07-01T21:58:00.847Z,99.90
2018-07-01T22:00:32.425Z,99.90
2018-07-01T22:03:03.148Z,99.90
2018-07-01T22:05:32.468Z,99.90
2018-07-01T22:08:02.095Z,99.90
2018-07-01T22:10:42.091Z,99.90
2018-07-01T22:14:33.786Z,99.90
2018-07-01T22:17:04.595Z,99.90
2018-07-01T22:19:34.891Z,99.90
2018-07-01T22:22:04.875Z,99.90
2018-07-01T22:24:37.479Z,99.90
2018-07-01T22:27:07.354Z,99.90
2018-07-01T22:29:39.749Z,99.90
2018-07-01T22:32:09.303Z,99.90
2018-07-01T22:34:39.001Z,99.90
2018-07-01T22:37:08.720Z,99.90
2018-07-01T22:39:38.643Z,99.90
2018-07-01T22:42:08.270Z,99.90
2018-07-01T22:44:37.818Z,99.90
2018-07-01T22:47:07.693Z,99.90
2018-07-01T22:49:38.455Z,99.90
2018-07-01T22:52:07.988Z,99.90
2018-07-01T22:54:37.545Z,99.90
2018-07-01T22:57:07.369Z,99.90
2018-07-01T22:59:36.955Z,99.90
2018-07-01T23:03:13.946Z,99.90
2018-07-01T23:05:43.899Z,99.90
2018-07-01T23:08:13.669Z,99.90
2018-07-01T23:10:43.472Z,99.90
2018-07-01T23:13:12.985Z,99.90
2018-07-01T23:18:12.625Z,99.90
2018-07-01T23:20:42.127Z,99.90
2018-07-01T23:23:11.969Z,99.90
2018-07-01T23:25:41.367Z,99.90
2018-07-01T23:28:10.439Z,99.90
2018-07-01T23:30:39.518Z,99.90
2018-07-01T23:33:08.609Z,99.90
2018-07-01T23:35:38.606Z,99.90
2018-07-01T23:38:07.670Z,99.90
2018-07-01T23:40:36.738Z,99.90
2018-07-01T23:43:05.860Z,99.90
2018-07-01T23:45:34.924Z,99.90
2018-07-01T23:48:04.069Z,99.90
2018-07-01T23:50:33.146Z,99.90
2018-07-01T23:53:02.319Z,99.90
2018-07-01T23:55:31.475Z,99.90
2018-07-01T23:58:00.585Z,99.90
